| Date | Time | Temp. (oF) | Dew Point (oF) | Rel. Hum. (%) | Press. (in.) | Wind Dir. | Wind Speed (mph) | Hourly Rainfall (in.) |
|
|---|---|---|---|---|---|---|---|---|---|
| 1 | 02/17 | 00:00 | 42 | 28 | 58 | 29.68 | SSE | 0 | 0.00 |
| 2 | 02/16 | 23:00 | 41 | 27 | 58 | 29.71 | NW | 2 | 0.00 |
| 3 | 02/16 | 22:00 | 41 | 26 | 57 | 29.74 | SSW | 0 | 0.00 |
| 4 | 02/16 | 21:00 | 42 | 28 | 58 | 29.74 | SSE | 3 | 0.00 |
| 5 | 02/16 | 20:00 | 43 | 26 | 51 | 29.74 | NNW | 0 | 0.00 |
| 6 | 02/16 | 19:00 | 46 | 25 | 45 | 29.76 | NNW | 1 | 0.00 |
| 7 | 02/16 | 18:00 | 49 | 25 | 40 | 29.76 | SSW | 2 | 0.00 |
| 8 | 02/16 | 17:00 | 51 | 26 | 38 | 29.74 | W | 4 | 0.00 |
| 9 | 02/16 | 16:00 | 52 | 26 | 37 | 29.75 | SSW | 5 | 0.00 |
| 10 | 02/16 | 15:00 | 51 | 24 | 35 | 29.76 | SSW | 5 | 0.00 |
| 11 | 02/16 | 14:00 | 52 | 25 | 36 | 29.79 | WSW | 14 | 0.00 |
| 12 | 02/16 | 13:00 | 52 | 27 | 38 | 29.82 | S | 11 | 0.00 |
| 13 | 02/16 | 12:00 | 52 | 28 | 40 | 29.86 | WNW | 16 | 0.00 |
| 14 | 02/16 | 11:00 | 51 | 32 | 49 | 29.89 | WSW | 11 | 0.00 |
| 15 | 02/16 | 10:00 | 50 | 31 | 49 | 29.91 | SW | 5 | 0.00 |
| 16 | 02/16 | 09:00 | 47 | 32 | 56 | 29.91 | WSW | 5 | 0.00 |
| 17 | 02/16 | 08:00 | 42 | 31 | 66 | 29.90 | SW | 3 | 0.00 |
| 18 | 02/16 | 07:00 | 42 | 31 | 67 | 29.89 | SW | 2 | 0.00 |
| 19 | 02/16 | 06:00 | 43 | 31 | 63 | 29.90 | SSW | 2 | 0.00 |
| 20 | 02/16 | 05:00 | 45 | 31 | 59 | 29.90 | NW | 3 | 0.00 |
| 21 | 02/16 | 04:00 | 46 | 31 | 56 | 29.89 | SW | 1 | 0.00 |
| 22 | 02/16 | 03:00 | 45 | 31 | 58 | 29.90 | SW | 4 | 0.00 |
| 23 | 02/16 | 02:00 | 46 | 31 | 57 | 29.91 | S | 3 | 0.00 |
| 24 | 02/16 | 01:00 | 46 | 31 | 57 | 29.93 | S | 4 | 0.00 |